sensor_id;sensor_type;location;lat;lon;timestamp;temperature;humidity
8402;DHT22;4238;48.404;9.498;2022-11-21T00:00:48;4.00;99.90
8402;DHT22;4238;48.404;9.498;2022-11-21T00:03:16;4.00;99.90
8402;DHT22;4238;48.404;9.498;2022-11-21T00:05:44;4.00;99.90
8402;DHT22;4238;48.404;9.498;2022-11-21T00:08:13;4.00;99.90
8402;DHT22;4238;48.404;9.498;2022-11-21T00:10:40;4.00;99.90
8402;DHT22;4238;48.404;9.498;2022-11-21T00:13:12;4.00;99.90
8402;DHT22;4238;48.404;9.498;2022-11-21T00:15:40;4.00;99.90
8402;DHT22;4238;48.404;9.498;2022-11-21T00:18:07;3.90;99.90
8402;DHT22;4238;48.404;9.498;2022-11-21T00:20:36;4.00;99.90
8402;DHT22;4238;48.404;9.498;2022-11-21T00:23:03;4.00;99.90
8402;DHT22;4238;48.404;9.498;2022-11-21T00:25:30;4.00;99.90
8402;DHT22;4238;48.404;9.498;2022-11-21T00:27:57;3.90;99.90
8402;DHT22;4238;48.404;9.498;2022-11-21T00:30:24;3.90;99.90
8402;DHT22;4238;48.404;9.498;2022-11-21T00:32:53;3.90;99.90
8402;DHT22;4238;48.404;9.498;2022-11-21T00:35:20;4.00;99.90
8402;DHT22;4238;48.404;9.498;2022-11-21T00:37:47;3.90;99.90
8402;DHT22;4238;48.404;9.498;2022-11-21T00:40:15;3.90;99.90
8402;DHT22;4238;48.404;9.498;2022-11-21T00:42:42;3.90;99.90
8402;DHT22;4238;48.404;9.498;2022-11-21T00:45:09;3.90;99.90
8402;DHT22;4238;48.404;9.498;2022-11-21T00:47:36;4.00;99.90
8402;DHT22;4238;48.404;9.498;2022-11-21T00:50:05;4.00;99.90
8402;DHT22;4238;48.404;9.498;2022-11-21T00:52:32;4.00;99.90
8402;DHT22;4238;48.404;9.498;2022-11-21T00:54:59;4.00;99.90
8402;DHT22;4238;48.404;9.498;2022-11-21T00:57:26;3.90;99.90
8402;DHT22;4238;48.404;9.498;2022-11-21T00:59:53;4.00;99.90
8402;DHT22;4238;48.404;9.498;2022-11-21T01:02:20;3.90;99.90
8402;DHT22;4238;48.404;9.498;2022-11-21T01:04:47;3.90;99.90
8402;DHT22;4238;48.404;9.498;2022-11-21T01:07:15;3.70;99.90
8402;DHT22;4238;48.404;9.498;2022-11-21T01:09:42;3.60;99.90
8402;DHT22;4238;48.404;9.498;2022-11-21T01:12:08;3.50;99.90
8402;DHT22;4238;48.404;9.498;2022-11-21T01:14:35;3.60;99.90
8402;DHT22;4238;48.404;9.498;2022-11-21T01:17:02;3.60;99.90
8402;DHT22;4238;48.404;9.498;2022-11-21T01:19:29;3.50;99.90
8402;DHT22;4238;48.404;9.498;2022-11-21T01:21:56;3.60;99.90
8402;DHT22;4238;48.404;9.498;2022-11-21T01:24:24;3.60;99.90
8402;DHT22;4238;48.404;9.498;2022-11-21T01:26:51;3.60;99.90
8402;DHT22;4238;48.404;9.498;2022-11-21T01:29:19;3.70;99.90
8402;DHT22;4238;48.404;9.498;2022-11-21T01:31:45;3.70;99.90
8402;DHT22;4238;48.404;9.498;2022-11-21T01:34:12;3.70;99.90
8402;DHT22;4238;48.404;9.498;2022-11-21T01:36:40;3.70;99.90
8402;DHT22;4238;48.404;9.498;2022-11-21T01:39:09;3.70;99.90
8402;DHT22;4238;48.404;9.498;2022-11-21T01:41:38;3.80;99.90
8402;DHT22;4238;48.404;9.498;2022-11-21T01:44:18;3.80;99.90
8402;DHT22;4238;48.404;9.498;2022-11-21T01:46:46;3.80;99.90
8402;DHT22;4238;48.404;9.498;2022-11-21T01:49:16;3.90;99.90
8402;DHT22;4238;48.404;9.498;2022-11-21T01:51:47;3.70;99.90
8402;DHT22;4238;48.404;9.498;2022-11-21T01:54:19;3.60;99.90
8402;DHT22;4238;48.404;9.498;2022-11-21T01:56:52;3.60;99.90
8402;DHT22;4238;48.404;9.498;2022-11-21T01:59:26;3.70;99.90
8402;DHT22;4238;48.404;9.498;2022-11-21T02:01:56;3.70;99.90
8402;DHT22;4238;48.404;9.498;2022-11-21T02:04:25;3.60;99.90
8402;DHT22;4238;48.404;9.498;2022-11-21T02:06:53;3.70;99.90
8402;DHT22;4238;48.404;9.498;2022-11-21T02:09:20;3.70;99.90
8402;DHT22;4238;48.404;9.498;2022-11-21T02:11:51;3.80;99.90
8402;DHT22;4238;48.404;9.498;2022-11-21T02:14:20;3.80;99.90
8402;DHT22;4238;48.404;9.498;2022-11-21T02:16:47;3.80;99.90
8402;DHT22;4238;48.404;9.498;2022-11-21T02:19:19;3.60;99.90
8402;DHT22;4238;48.404;9.498;2022-11-21T02:21:52;3.50;99.90
8402;DHT22;4238;48.404;9.498;2022-11-21T02:24:25;3.60;99.90
8402;DHT22;4238;48.404;9.498;2022-11-21T02:26:57;3.60;99.90
8402;DHT22;4238;48.404;9.498;2022-11-21T02:29:25;3.50;99.90
8402;DHT22;4238;48.404;9.498;2022-11-21T02:31:52;3.50;99.90
8402;DHT22;4238;48.404;9.498;2022-11-21T02:34:19;3.50;99.90
8402;DHT22;4238;48.404;9.498;2022-11-21T02:36:46;3.50;99.90
8402;DHT22;4238;48.404;9.498;2022-11-21T02:39:18;3.50;99.90
8402;DHT22;4238;48.404;9.498;2022-11-21T02:41:53;3.50;99.90
8402;DHT22;4238;48.404;9.498;2022-11-21T02:44:28;3.50;99.90
8402;DHT22;4238;48.404;9.498;2022-11-21T02:46:57;3.40;99.90
8402;DHT22;4238;48.404;9.498;2022-11-21T02:49:30;3.40;99.90
8402;DHT22;4238;48.404;9.498;2022-11-21T02:52:00;3.40;99.90
8402;DHT22;4238;48.404;9.498;2022-11-21T02:54:27;3.30;99.90
8402;DHT22;4238;48.404;9.498;2022-11-21T02:56:54;3.30;99.90
8402;DHT22;4238;48.404;9.498;2022-11-21T02:59:22;3.30;99.90
8402;DHT22;4238;48.404;9.498;2022-11-21T03:01:50;3.20;99.90
8402;DHT22;4238;48.404;9.498;2022-11-21T03:04:17;3.20;99.90
8402;DHT22;4238;48.404;9.498;2022-11-21T03:06:44;3.30;99.90
8402;DHT22;4238;48.404;9.498;2022-11-21T03:09:11;3.20;99.90
8402;DHT22;4238;48.404;9.498;2022-11-21T03:11:38;3.20;99.90
8402;DHT22;4238;48.404;9.498;2022-11-21T03:14:05;3.20;99.90
8402;DHT22;4238;48.404;9.498;2022-11-21T03:16:31;3.20;99.90
8402;DHT22;4238;48.404;9.498;2022-11-21T03:19:00;3.20;99.90
8402;DHT22;4238;48.404;9.498;2022-11-21T03:21:27;3.30;99.90
8402;DHT22;4238;48.404;9.498;2022-11-21T03:23:54;3.30;99.90
8402;DHT22;4238;48.404;9.498;2022-11-21T03:26:21;3.40;99.90
8402;DHT22;4238;48.404;9.498;2022-11-21T03:28:48;3.40;99.90
8402;DHT22;4238;48.404;9.498;2022-11-21T03:31:14;3.40;99.90
8402;DHT22;4238;48.404;9.498;2022-11-21T03:33:41;3.40;99.90
8402;DHT22;4238;48.404;9.498;2022-11-21T03:36:10;3.50;99.90
8402;DHT22;4238;48.404;9.498;2022-11-21T03:38:36;3.60;99.90
8402;DHT22;4238;48.404;9.498;2022-11-21T03:41:03;3.60;99.90
8402;DHT22;4238;48.404;9.498;2022-11-21T03:43:51;3.60;99.90
8402;DHT22;4238;48.404;9.498;2022-11-21T03:46:18;3.70;99.90
8402;DHT22;4238;48.404;9.498;2022-11-21T03:48:45;3.70;99.90
8402;DHT22;4238;48.404;9.498;2022-11-21T03:51:13;3.70;99.90
8402;DHT22;4238;48.404;9.498;2022-11-21T03:53:40;3.80;99.90
8402;DHT22;4238;48.404;9.498;2022-11-21T03:56:07;3.80;99.90
8402;DHT22;4238;48.404;9.498;2022-11-21T03:58:34;3.80;99.90
8402;DHT22;4238;48.404;9.498;2022-11-21T04:01:01;3.90;99.90
8402;DHT22;4238;48.404;9.498;2022-11-21T04:03:28;3.90;99.90
8402;DHT22;4238;48.404;9.498;2022-11-21T04:05:55;3.90;99.90
8402;DHT22;4238;48.404;9.498;2022-11-21T04:08:23;3.90;99.90
8402;DHT22;4238;48.404;9.498;2022-11-21T04:10:51;3.90;99.90
8402;DHT22;4238;48.404;9.498;2022-11-21T04:13:19;3.90;99.90
8402;DHT22;4238;48.404;9.498;2022-11-21T04:15:46;4.00;99.90
8402;DHT22;4238;48.404;9.498;2022-11-21T04:18:13;4.00;99.90
8402;DHT22;4238;48.404;9.498;2022-11-21T04:20:40;4.00;99.90
8402;DHT22;4238;48.404;9.498;2022-11-21T04:23:07;4.00;99.90
8402;DHT22;4238;48.404;9.498;2022-11-21T04:25:35;4.00;99.90
8402;DHT22;4238;48.404;9.498;2022-11-21T04:28:03;4.10;99.90
8402;DHT22;4238;48.404;9.498;2022-11-21T04:30:31;4.10;99.90
8402;DHT22;4238;48.404;9.498;2022-11-21T04:32:59;4.10;99.90
8402;DHT22;4238;48.404;9.498;2022-11-21T04:35:26;4.10;99.90
8402;DHT22;4238;48.404;9.498;2022-11-21T04:37:53;4.10;99.90
8402;DHT22;4238;48.404;9.498;2022-11-21T04:40:20;4.10;99.90
8402;DHT22;4238;48.404;9.498;2022-11-21T04:42:49;4.10;99.90
8402;DHT22;4238;48.404;9.498;2022-11-21T04:45:16;4.10;99.90
8402;DHT22;4238;48.404;9.498;2022-11-21T04:47:44;4.10;99.90
8402;DHT22;4238;48.404;9.498;2022-11-21T04:50:13;4.10;99.90
8402;DHT22;4238;48.404;9.498;2022-11-21T04:52:40;4.10;99.90
8402;DHT22;4238;48.404;9.498;2022-11-21T04:55:08;4.10;99.90
8402;DHT22;4238;48.404;9.498;2022-11-21T04:57:35;4.00;99.90
8402;DHT22;4238;48.404;9.498;2022-11-21T05:00:04;4.00;99.90
8402;DHT22;4238;48.404;9.498;2022-11-21T05:02:31;4.00;99.90
8402;DHT22;4238;48.404;9.498;2022-11-21T05:04:58;4.00;99.90
8402;DHT22;4238;48.404;9.498;2022-11-21T05:07:25;4.00;99.90
8402;DHT22;4238;48.404;9.498;2022-11-21T05:09:52;4.00;99.90
8402;DHT22;4238;48.404;9.498;2022-11-21T05:12:19;4.00;99.90
8402;DHT22;4238;48.404;9.498;2022-11-21T05:15:05;4.00;99.90
8402;DHT22;4238;48.404;9.498;2022-11-21T05:17:32;3.90;99.90
8402;DHT22;4238;48.404;9.498;2022-11-21T05:19:59;4.00;99.90
8402;DHT22;4238;48.404;9.498;2022-11-21T05:22:26;3.90;99.90
8402;DHT22;4238;48.404;9.498;2022-11-21T05:24:53;4.00;99.90
8402;DHT22;4238;48.404;9.498;2022-11-21T05:27:20;4.00;99.90
8402;DHT22;4238;48.404;9.498;2022-11-21T05:29:47;3.90;99.90
8402;DHT22;4238;48.404;9.498;2022-11-21T05:32:15;4.00;99.90
8402;DHT22;4238;48.404;9.498;2022-11-21T05:34:42;4.00;99.90
8402;DHT22;4238;48.404;9.498;2022-11-21T05:37:09;4.00;99.90
8402;DHT22;4238;48.404;9.498;2022-11-21T05:39:36;3.90;99.90
8402;DHT22;4238;48.404;9.498;2022-11-21T05:42:03;3.90;99.90
8402;DHT22;4238;48.404;9.498;2022-11-21T05:44:30;3.80;99.90
8402;DHT22;4238;48.404;9.498;2022-11-21T05:46:56;3.80;99.90
8402;DHT22;4238;48.404;9.498;2022-11-21T05:49:24;3.80;99.90
8402;DHT22;4238;48.404;9.498;2022-11-21T05:51:51;3.80;99.90
8402;DHT22;4238;48.404;9.498;2022-11-21T05:54:18;3.80;99.90
8402;DHT22;4238;48.404;9.498;2022-11-21T05:56:45;3.70;99.90
8402;DHT22;4238;48.404;9.498;2022-11-21T05:59:12;3.70;99.90
8402;DHT22;4238;48.404;9.498;2022-11-21T06:01:39;3.70;99.90
8402;DHT22;4238;48.404;9.498;2022-11-21T06:04:24;3.80;99.90
8402;DHT22;4238;48.404;9.498;2022-11-21T06:06:51;3.80;99.90
8402;DHT22;4238;48.404;9.498;2022-11-21T06:09:18;3.80;99.90
8402;DHT22;4238;48.404;9.498;2022-11-21T06:11:45;3.80;99.90
8402;DHT22;4238;48.404;9.498;2022-11-21T06:14:12;3.80;99.90
8402;DHT22;4238;48.404;9.498;2022-11-21T06:16:39;3.80;99.90
8402;DHT22;4238;48.404;9.498;2022-11-21T06:19:06;3.80;99.90
8402;DHT22;4238;48.404;9.498;2022-11-21T06:21:34;3.80;99.90
8402;DHT22;4238;48.404;9.498;2022-11-21T06:24:01;3.80;99.90
8402;DHT22;4238;48.404;9.498;2022-11-21T06:26:28;3.70;99.90
8402;DHT22;4238;48.404;9.498;2022-11-21T06:28:55;3.80;99.90
8402;DHT22;4238;48.404;9.498;2022-11-21T06:31:24;3.70;99.90
8402;DHT22;4238;48.404;9.498;2022-11-21T06:33:52;3.60;99.90
8402;DHT22;4238;48.404;9.498;2022-11-21T06:36:20;3.70;99.90
8402;DHT22;4238;48.404;9.498;2022-11-21T06:38:48;3.60;99.90
8402;DHT22;4238;48.404;9.498;2022-11-21T06:41:16;3.60;99.90
8402;DHT22;4238;48.404;9.498;2022-11-21T06:43:44;3.60;99.90
8402;DHT22;4238;48.404;9.498;2022-11-21T06:46:11;3.60;99.90
8402;DHT22;4238;48.404;9.498;2022-11-21T06:48:39;3.50;99.90
8402;DHT22;4238;48.404;9.498;2022-11-21T06:51:07;3.60;99.90
8402;DHT22;4238;48.404;9.498;2022-11-21T06:53:36;3.60;99.90
8402;DHT22;4238;48.404;9.498;2022-11-21T06:56:05;3.70;99.90
8402;DHT22;4238;48.404;9.498;2022-11-21T06:58:32;3.70;99.90
8402;DHT22;4238;48.404;9.498;2022-11-21T07:01:03;3.70;99.90
8402;DHT22;4238;48.404;9.498;2022-11-21T07:03:30;3.80;99.90
8402;DHT22;4238;48.404;9.498;2022-11-21T07:05:58;3.70;99.90
8402;DHT22;4238;48.404;9.498;2022-11-21T07:08:26;3.80;99.90
8402;DHT22;4238;48.404;9.498;2022-11-21T07:10:53;3.80;99.90
8402;DHT22;4238;48.404;9.498;2022-11-21T07:13:21;3.80;99.90
8402;DHT22;4238;48.404;9.498;2022-11-21T07:15:49;3.90;99.90
8402;DHT22;4238;48.404;9.498;2022-11-21T07:18:16;3.90;99.90
8402;DHT22;4238;48.404;9.498;2022-11-21T07:20:43;4.00;99.90
8402;DHT22;4238;48.404;9.498;2022-11-21T07:23:11;4.00;99.90
8402;DHT22;4238;48.404;9.498;2022-11-21T07:25:38;4.10;99.90
8402;DHT22;4238;48.404;9.498;2022-11-21T07:28:06;4.10;99.90
8402;DHT22;4238;48.404;9.498;2022-11-21T07:30:35;4.20;99.90
8402;DHT22;4238;48.404;9.498;2022-11-21T07:33:05;4.20;99.90
8402;DHT22;4238;48.404;9.498;2022-11-21T07:35:33;4.20;99.90
8402;DHT22;4238;48.404;9.498;2022-11-21T07:38:01;4.20;99.90
8402;DHT22;4238;48.404;9.498;2022-11-21T07:40:29;4.20;99.90
8402;DHT22;4238;48.404;9.498;2022-11-21T07:43:00;4.10;99.90
8402;DHT22;4238;48.404;9.498;2022-11-21T07:45:27;4.10;99.90
8402;DHT22;4238;48.404;9.498;2022-11-21T07:47:58;4.10;99.90
8402;DHT22;4238;48.404;9.498;2022-11-21T07:50:26;4.10;99.90
8402;DHT22;4238;48.404;9.498;2022-11-21T07:52:56;4.20;99.90
8402;DHT22;4238;48.404;9.498;2022-11-21T07:55:24;4.20;99.90
8402;DHT22;4238;48.404;9.498;2022-11-21T07:57:57;4.30;99.90
8402;DHT22;4238;48.404;9.498;2022-11-21T08:00:25;4.30;99.90
8402;DHT22;4238;48.404;9.498;2022-11-21T08:02:52;4.30;99.90
8402;DHT22;4238;48.404;9.498;2022-11-21T08:05:20;4.40;99.90
8402;DHT22;4238;48.404;9.498;2022-11-21T08:07:48;4.50;99.90
8402;DHT22;4238;48.404;9.498;2022-11-21T08:10:15;4.60;99.90
8402;DHT22;4238;48.404;9.498;2022-11-21T08:12:42;4.60;99.90
8402;DHT22;4238;48.404;9.498;2022-11-21T08:15:10;4.60;99.90
8402;DHT22;4238;48.404;9.498;2022-11-21T08:17:37;4.50;99.90
8402;DHT22;4238;48.404;9.498;2022-11-21T08:20:05;4.40;99.90
8402;DHT22;4238;48.404;9.498;2022-11-21T08:22:37;4.40;99.90
8402;DHT22;4238;48.404;9.498;2022-11-21T08:25:06;4.40;99.90
8402;DHT22;4238;48.404;9.498;2022-11-21T08:27:33;4.30;99.90
8402;DHT22;4238;48.404;9.498;2022-11-21T08:30:00;4.30;99.90
8402;DHT22;4238;48.404;9.498;2022-11-21T08:32:27;4.40;99.90
8402;DHT22;4238;48.404;9.498;2022-11-21T08:34:54;4.40;99.90
8402;DHT22;4238;48.404;9.498;2022-11-21T08:37:21;4.50;99.90
8402;DHT22;4238;48.404;9.498;2022-11-21T08:39:49;4.40;97.20
8402;DHT22;4238;48.404;9.498;2022-11-21T08:42:16;4.40;96.70
8402;DHT22;4238;48.404;9.498;2022-11-21T08:44:43;4.50;97.40
8402;DHT22;4238;48.404;9.498;2022-11-21T08:47:10;4.50;91.60
8402;DHT22;4238;48.404;9.498;2022-11-21T08:49:37;4.60;92.60
8402;DHT22;4238;48.404;9.498;2022-11-21T08:52:04;4.70;90.10
8402;DHT22;4238;48.404;9.498;2022-11-21T08:54:31;4.70;87.00
8402;DHT22;4238;48.404;9.498;2022-11-21T08:56:59;4.70;91.30
8402;DHT22;4238;48.404;9.498;2022-11-21T08:59:26;4.70;87.60
8402;DHT22;4238;48.404;9.498;2022-11-21T09:01:53;4.70;90.40
8402;DHT22;4238;48.404;9.498;2022-11-21T09:04:20;4.80;93.10
8402;DHT22;4238;48.404;9.498;2022-11-21T09:06:46;4.80;92.40
8402;DHT22;4238;48.404;9.498;2022-11-21T09:09:13;4.90;92.80
8402;DHT22;4238;48.404;9.498;2022-11-21T09:11:40;5.00;93.40
8402;DHT22;4238;48.404;9.498;2022-11-21T09:14:09;5.20;92.50
8402;DHT22;4238;48.404;9.498;2022-11-21T09:16:53;5.30;91.10
8402;DHT22;4238;48.404;9.498;2022-11-21T09:19:37;5.30;80.40
8402;DHT22;4238;48.404;9.498;2022-11-21T09:22:04;5.30;58.50
8402;DHT22;4238;48.404;9.498;2022-11-21T09:24:31;5.40;69.80
8402;DHT22;4238;48.404;9.498;2022-11-21T09:26:58;5.60;80.70
8402;DHT22;4238;48.404;9.498;2022-11-21T09:29:26;5.70;77.20
8402;DHT22;4238;48.404;9.498;2022-11-21T09:31:53;5.90;87.70
8402;DHT22;4238;48.404;9.498;2022-11-21T09:34:20;6.10;73.20
8402;DHT22;4238;48.404;9.498;2022-11-21T09:36:47;6.10;60.30
8402;DHT22;4238;48.404;9.498;2022-11-21T09:39:14;6.20;22.20
8402;DHT22;4238;48.404;9.498;2022-11-21T09:41:49;6.20;12.10
8402;DHT22;4238;48.404;9.498;2022-11-21T09:44:51;6.20;17.30
8402;DHT22;4238;48.404;9.498;2022-11-21T09:47:22;6.10;33.40
8402;DHT22;4238;48.404;9.498;2022-11-21T09:49:54;6.00;37.70
8402;DHT22;4238;48.404;9.498;2022-11-21T09:52:31;6.00;22.60
8402;DHT22;4238;48.404;9.498;2022-11-21T09:55:02;5.90;21.70
8402;DHT22;4238;48.404;9.498;2022-11-21T09:57:31;5.90;19.00
8402;DHT22;4238;48.404;9.498;2022-11-21T10:00:03;5.80;19.00
8402;DHT22;4238;48.404;9.498;2022-11-21T10:02:34;5.70;27.70
8402;DHT22;4238;48.404;9.498;2022-11-21T10:05:01;5.80;19.90
8402;DHT22;4238;48.404;9.498;2022-11-21T10:07:30;5.90;28.00
8402;DHT22;4238;48.404;9.498;2022-11-21T10:10:11;5.90;18.40
8402;DHT22;4238;48.404;9.498;2022-11-21T10:12:50;5.70;18.50
8402;DHT22;4238;48.404;9.498;2022-11-21T10:15:35;5.60;24.00
8402;DHT22;4238;48.404;9.498;2022-11-21T10:18:23;5.50;27.10
8402;DHT22;4238;48.404;9.498;2022-11-21T10:21:00;5.60;32.60
8402;DHT22;4238;48.404;9.498;2022-11-21T10:23:38;5.70;19.50
8402;DHT22;4238;48.404;9.498;2022-11-21T10:26:14;5.90;11.20
8402;DHT22;4238;48.404;9.498;2022-11-21T10:28:47;5.90;1.00
8402;DHT22;4238;48.404;9.498;2022-11-21T10:31:18;5.80;7.40
8402;DHT22;4238;48.404;9.498;2022-11-21T10:33:46;5.70;20.30
8402;DHT22;4238;48.404;9.498;2022-11-21T10:36:23;6.20;17.50
8402;DHT22;4238;48.404;9.498;2022-11-21T10:38:56;6.80;1.00
8402;DHT22;4238;48.404;9.498;2022-11-21T10:41:36;7.60;1.00
8402;DHT22;4238;48.404;9.498;2022-11-21T10:44:13;8.10;1.00
8402;DHT22;4238;48.404;9.498;2022-11-21T10:47:10;8.50;1.00
8402;DHT22;4238;48.404;9.498;2022-11-21T10:49:38;8.80;1.00
8402;DHT22;4238;48.404;9.498;2022-11-21T10:52:10;8.90;99.90
8402;DHT22;4238;48.404;9.498;2022-11-21T10:55:06;8.70;99.90
8402;DHT22;4238;48.404;9.498;2022-11-21T10:57:38;8.90;1.00
8402;DHT22;4238;48.404;9.498;2022-11-21T11:00:20;9.30;1.00
8402;DHT22;4238;48.404;9.498;2022-11-21T11:03:04;9.40;1.00
8402;DHT22;4238;48.404;9.498;2022-11-21T11:05:33;9.80;99.90
8402;DHT22;4238;48.404;9.498;2022-11-21T11:08:05;9.90;1.00
8402;DHT22;4238;48.404;9.498;2022-11-21T11:10:34;9.70;99.90
8402;DHT22;4238;48.404;9.498;2022-11-21T11:13:02;10.00;1.00
8402;DHT22;4238;48.404;9.498;2022-11-21T11:16:00;10.20;1.00
8402;DHT22;4238;48.404;9.498;2022-11-21T11:18:30;10.40;99.90
8402;DHT22;4238;48.404;9.498;2022-11-21T11:21:16;10.30;1.00
8402;DHT22;4238;48.404;9.498;2022-11-21T11:23:44;9.70;99.90
8402;DHT22;4238;48.404;9.498;2022-11-21T11:26:23;9.20;1.00
8402;DHT22;4238;48.404;9.498;2022-11-21T11:28:50;8.70;99.90
8402;DHT22;4238;48.404;9.498;2022-11-21T11:31:17;8.40;1.00
8402;DHT22;4238;48.404;9.498;2022-11-21T11:33:53;8.20;99.90
8402;DHT22;4238;48.404;9.498;2022-11-21T11:36:33;8.10;1.00
8402;DHT22;4238;48.404;9.498;2022-11-21T11:39:09;8.10;99.90
8402;DHT22;4238;48.404;9.498;2022-11-21T11:41:59;8.40;1.00
8402;DHT22;4238;48.404;9.498;2022-11-21T11:44:56;8.20;1.00
8402;DHT22;4238;48.404;9.498;2022-11-21T11:47:48;8.80;1.00
8402;DHT22;4238;48.404;9.498;2022-11-21T11:50:23;9.50;99.90
8402;DHT22;4238;48.404;9.498;2022-11-21T11:52:58;9.40;71.00
8402;DHT22;4238;48.404;9.498;2022-11-21T11:55:34;9.80;99.90
8402;DHT22;4238;48.404;9.498;2022-11-21T11:58:07;9.50;1.00
8402;DHT22;4238;48.404;9.498;2022-11-21T12:00:41;8.80;99.90
8402;DHT22;4238;48.404;9.498;2022-11-21T12:03:14;8.50;18.70
8402;DHT22;4238;48.404;9.498;2022-11-21T12:05:54;8.20;1.00
8402;DHT22;4238;48.404;9.498;2022-11-21T12:08:28;8.30;1.00
8402;DHT22;4238;48.404;9.498;2022-11-21T12:10:58;8.20;99.90
8402;DHT22;4238;48.404;9.498;2022-11-21T12:13:47;8.20;99.90
8402;DHT22;4238;48.404;9.498;2022-11-21T12:16:14;8.40;99.90
8402;DHT22;4238;48.404;9.498;2022-11-21T12:18:49;8.70;1.00
8402;DHT22;4238;48.404;9.498;2022-11-21T12:21:18;9.30;1.00
8402;DHT22;4238;48.404;9.498;2022-11-21T12:23:47;9.40;88.40
8402;DHT22;4238;48.404;9.498;2022-11-21T12:26:35;8.80;99.90
8402;DHT22;4238;48.404;9.498;2022-11-21T12:32:07;9.50;1.00
8402;DHT22;4238;48.404;9.498;2022-11-21T12:34:46;9.80;1.00
8402;DHT22;4238;48.404;9.498;2022-11-21T12:37:29;10.00;1.00
8402;DHT22;4238;48.404;9.498;2022-11-21T12:39:59;10.20;89.30
8402;DHT22;4238;48.404;9.498;2022-11-21T12:42:40;10.30;1.00
8402;DHT22;4238;48.404;9.498;2022-11-21T12:45:27;10.10;99.90
8402;DHT22;4238;48.404;9.498;2022-11-21T12:48:10;10.30;99.90
8402;DHT22;4238;48.404;9.498;2022-11-21T12:51:14;10.20;99.90
8402;DHT22;4238;48.404;9.498;2022-11-21T12:54:13;10.30;99.90
8402;DHT22;4238;48.404;9.498;2022-11-21T12:57:04;10.40;1.00
8402;DHT22;4238;48.404;9.498;2022-11-21T12:59:34;10.30;99.90
8402;DHT22;4238;48.404;9.498;2022-11-21T13:02:15;10.10;99.90
8402;DHT22;4238;48.404;9.498;2022-11-21T13:04:47;9.80;99.90
8402;DHT22;4238;48.404;9.498;2022-11-21T13:07:16;9.60;99.90
8402;DHT22;4238;48.404;9.498;2022-11-21T13:09:48;9.40;99.90
8402;DHT22;4238;48.404;9.498;2022-11-21T13:12:22;9.30;1.00
8402;DHT22;4238;48.404;9.498;2022-11-21T13:14:54;9.40;1.00
8402;DHT22;4238;48.404;9.498;2022-11-21T13:17:38;9.40;1.00
8402;DHT22;4238;48.404;9.498;2022-11-21T13:20:18;9.50;1.00
8402;DHT22;4238;48.404;9.498;2022-11-21T13:22:49;9.40;99.90
8402;DHT22;4238;48.404;9.498;2022-11-21T13:25:49;9.70;1.00
8402;DHT22;4238;48.404;9.498;2022-11-21T13:28:35;9.50;99.90
8402;DHT22;4238;48.404;9.498;2022-11-21T13:31:28;9.50;1.00
8402;DHT22;4238;48.404;9.498;2022-11-21T13:33:55;9.60;1.00
8402;DHT22;4238;48.404;9.498;2022-11-21T13:36:49;9.60;99.90
8402;DHT22;4238;48.404;9.498;2022-11-21T13:39:28;9.60;1.00
8402;DHT22;4238;48.404;9.498;2022-11-21T13:42:01;9.80;1.00
8402;DHT22;4238;48.404;9.498;2022-11-21T13:44:46;9.70;99.90
8402;DHT22;4238;48.404;9.498;2022-11-21T13:47:29;9.50;99.90
8402;DHT22;4238;48.404;9.498;2022-11-21T13:50:04;9.60;99.90
8402;DHT22;4238;48.404;9.498;2022-11-21T13:52:40;9.70;99.90
8402;DHT22;4238;48.404;9.498;2022-11-21T13:55:33;9.50;91.10
8402;DHT22;4238;48.404;9.498;2022-11-21T13:58:14;8.80;82.00
8402;DHT22;4238;48.404;9.498;2022-11-21T14:04:00;7.80;1.00
8402;DHT22;4238;48.404;9.498;2022-11-21T14:06:35;7.50;1.00
8402;DHT22;4238;48.404;9.498;2022-11-21T14:09:24;7.60;1.00
8402;DHT22;4238;48.404;9.498;2022-11-21T14:11:54;7.70;99.90
8402;DHT22;4238;48.404;9.498;2022-11-21T14:14:47;7.70;1.00
8402;DHT22;4238;48.404;9.498;2022-11-21T14:17:34;7.80;99.90
8402;DHT22;4238;48.404;9.498;2022-11-21T14:20:14;7.60;1.00
8402;DHT22;4238;48.404;9.498;2022-11-21T14:22:45;7.30;1.00
8402;DHT22;4238;48.404;9.498;2022-11-21T14:25:16;7.10;1.00
8402;DHT22;4238;48.404;9.498;2022-11-21T14:27:45;6.80;1.00
8402;DHT22;4238;48.404;9.498;2022-11-21T14:30:33;6.80;1.00
8402;DHT22;4238;48.404;9.498;2022-11-21T14:33:22;6.90;1.00
8402;DHT22;4238;48.404;9.498;2022-11-21T14:35:51;6.30;1.00
8402;DHT22;4238;48.404;9.498;2022-11-21T14:38:20;6.10;1.00
8402;DHT22;4238;48.404;9.498;2022-11-21T14:40:47;6.20;1.00
8402;DHT22;4238;48.404;9.498;2022-11-21T14:43:27;5.90;1.00
8402;DHT22;4238;48.404;9.498;2022-11-21T14:45:56;5.70;1.00
8402;DHT22;4238;48.404;9.498;2022-11-21T14:48:26;5.70;1.00
8402;DHT22;4238;48.404;9.498;2022-11-21T14:50:55;5.50;4.50
8402;DHT22;4238;48.404;9.498;2022-11-21T14:53:24;5.80;1.00
8402;DHT22;4238;48.404;9.498;2022-11-21T14:55:51;5.80;1.00
8402;DHT22;4238;48.404;9.498;2022-11-21T14:58:19;5.70;1.00
8402;DHT22;4238;48.404;9.498;2022-11-21T15:01:06;5.40;6.60
8402;DHT22;4238;48.404;9.498;2022-11-21T15:03:33;5.60;1.00
8402;DHT22;4238;48.404;9.498;2022-11-21T15:06:02;5.80;1.00
8402;DHT22;4238;48.404;9.498;2022-11-21T15:08:29;5.80;1.00
8402;DHT22;4238;48.404;9.498;2022-11-21T15:10:57;5.90;1.00
8402;DHT22;4238;48.404;9.498;2022-11-21T15:13:27;5.90;1.00
8402;DHT22;4238;48.404;9.498;2022-11-21T15:15:57;5.80;1.00
8402;DHT22;4238;48.404;9.498;2022-11-21T15:18:28;5.70;1.00
8402;DHT22;4238;48.404;9.498;2022-11-21T15:20:59;5.80;1.00
8402;DHT22;4238;48.404;9.498;2022-11-21T15:23:28;5.80;1.00
8402;DHT22;4238;48.404;9.498;2022-11-21T15:25:56;5.70;1.00
8402;DHT22;4238;48.404;9.498;2022-11-21T15:28:23;5.50;1.00
8402;DHT22;4238;48.404;9.498;2022-11-21T15:31:13;5.30;9.60
8402;DHT22;4238;48.404;9.498;2022-11-21T15:33:55;5.30;13.80
8402;DHT22;4238;48.404;9.498;2022-11-21T15:36:22;5.40;10.40
8402;DHT22;4238;48.404;9.498;2022-11-21T15:38:52;5.30;18.10
8402;DHT22;4238;48.404;9.498;2022-11-21T15:41:27;5.40;12.10
8402;DHT22;4238;48.404;9.498;2022-11-21T15:43:55;5.40;17.30
8402;DHT22;4238;48.404;9.498;2022-11-21T15:46:40;5.30;15.90
8402;DHT22;4238;48.404;9.498;2022-11-21T15:49:10;5.30;24.00
8402;DHT22;4238;48.404;9.498;2022-11-21T15:51:39;5.30;25.80
8402;DHT22;4238;48.404;9.498;2022-11-21T15:54:09;5.20;30.00
8402;DHT22;4238;48.404;9.498;2022-11-21T15:56:36;5.20;28.10
8402;DHT22;4238;48.404;9.498;2022-11-21T15:59:05;5.00;33.90
8402;DHT22;4238;48.404;9.498;2022-11-21T16:01:32;5.00;37.80
8402;DHT22;4238;48.404;9.498;2022-11-21T16:04:01;5.10;32.30
8402;DHT22;4238;48.404;9.498;2022-11-21T16:06:30;5.10;25.50
8402;DHT22;4238;48.404;9.498;2022-11-21T16:08:57;5.10;27.50
8402;DHT22;4238;48.404;9.498;2022-11-21T16:11:26;5.00;28.80
8402;DHT22;4238;48.404;9.498;2022-11-21T16:13:55;4.90;39.00
8402;DHT22;4238;48.404;9.498;2022-11-21T16:16:24;4.90;42.40
8402;DHT22;4238;48.404;9.498;2022-11-21T16:18:51;4.90;39.50
8402;DHT22;4238;48.404;9.498;2022-11-21T16:21:18;4.80;39.90
8402;DHT22;4238;48.404;9.498;2022-11-21T16:23:47;4.90;35.00
8402;DHT22;4238;48.404;9.498;2022-11-21T16:26:14;4.80;37.80
8402;DHT22;4238;48.404;9.498;2022-11-21T16:28:41;4.90;34.30
8402;DHT22;4238;48.404;9.498;2022-11-21T16:31:17;4.80;34.90
8402;DHT22;4238;48.404;9.498;2022-11-21T16:33:44;4.80;34.70
8402;DHT22;4238;48.404;9.498;2022-11-21T16:36:11;4.80;34.10
8402;DHT22;4238;48.404;9.498;2022-11-21T16:38:41;4.80;32.40
8402;DHT22;4238;48.404;9.498;2022-11-21T16:41:09;4.70;30.50
8402;DHT22;4238;48.404;9.498;2022-11-21T16:43:44;4.60;38.80
8402;DHT22;4238;48.404;9.498;2022-11-21T16:46:11;4.70;34.70
8402;DHT22;4238;48.404;9.498;2022-11-21T16:48:38;4.60;36.80
8402;DHT22;4238;48.404;9.498;2022-11-21T16:51:09;4.50;42.20